sensor_id;sensor_type;location;lat;lon;timestamp;P1;durP1;ratioP1;P2;durP2;ratioP2
6031;SDS011;3044;43.232;27.972;2022-09-01T00:02:07;8.77;;;7.23;;
6031;SDS011;3044;43.232;27.972;2022-09-01T00:04:35;11.70;;;6.93;;
6031;SDS011;3044;43.232;27.972;2022-09-01T00:07:04;12.40;;;8.57;;
6031;SDS011;3044;43.232;27.972;2022-09-01T00:09:32;12.40;;;6.93;;
6031;SDS011;3044;43.232;27.972;2022-09-01T00:12:00;8.93;;;7.27;;
6031;SDS011;3044;43.232;27.972;2022-09-01T00:14:31;15.90;;;8.27;;
6031;SDS011;3044;43.232;27.972;2022-09-01T00:17:00;18.33;;;7.80;;
6031;SDS011;3044;43.232;27.972;2022-09-01T00:19:30;14.93;;;8.13;;
6031;SDS011;3044;43.232;27.972;2022-09-01T00:21:57;15.67;;;8.07;;
6031;SDS011;3044;43.232;27.972;2022-09-01T00:24:25;20.43;;;8.10;;
6031;SDS011;3044;43.232;27.972;2022-09-01T00:26:52;19.63;;;8.37;;
6031;SDS011;3044;43.232;27.972;2022-09-01T00:29:21;28.57;;;9.10;;
6031;SDS011;3044;43.232;27.972;2022-09-01T00:31:50;11.07;;;8.17;;
6031;SDS011;3044;43.232;27.972;2022-09-01T00:34:17;12.90;;;7.47;;
6031;SDS011;3044;43.232;27.972;2022-09-01T00:36:44;14.63;;;8.07;;
6031;SDS011;3044;43.232;27.972;2022-09-01T00:39:12;13.73;;;8.20;;
6031;SDS011;3044;43.232;27.972;2022-09-01T00:41:40;16.07;;;9.00;;
6031;SDS011;3044;43.232;27.972;2022-09-01T00:44:10;16.70;;;8.40;;
6031;SDS011;3044;43.232;27.972;2022-09-01T00:46:39;16.37;;;8.20;;
6031;SDS011;3044;43.232;27.972;2022-09-01T00:49:11;13.60;;;8.13;;
6031;SDS011;3044;43.232;27.972;2022-09-01T00:51:50;18.70;;;8.80;;
6031;SDS011;3044;43.232;27.972;2022-09-01T00:54:22;16.03;;;8.20;;
6031;SDS011;3044;43.232;27.972;2022-09-01T00:56:52;12.30;;;7.63;;
6031;SDS011;3044;43.232;27.972;2022-09-01T00:59:21;17.37;;;7.60;;
6031;SDS011;3044;43.232;27.972;2022-09-01T01:01:49;15.43;;;7.87;;
6031;SDS011;3044;43.232;27.972;2022-09-01T01:04:19;20.00;;;7.63;;
6031;SDS011;3044;43.232;27.972;2022-09-01T01:06:47;13.30;;;7.53;;
6031;SDS011;3044;43.232;27.972;2022-09-01T01:09:23;15.03;;;8.63;;
6031;SDS011;3044;43.232;27.972;2022-09-01T01:11:51;12.67;;;8.27;;
6031;SDS011;3044;43.232;27.972;2022-09-01T01:14:21;12.60;;;8.10;;
6031;SDS011;3044;43.232;27.972;2022-09-01T01:16:48;16.07;;;7.80;;
6031;SDS011;3044;43.232;27.972;2022-09-01T01:19:19;12.77;;;7.47;;
6031;SDS011;3044;43.232;27.972;2022-09-01T01:22:15;14.03;;;7.37;;
6031;SDS011;3044;43.232;27.972;2022-09-01T01:25:06;12.30;;;7.20;;
6031;SDS011;3044;43.232;27.972;2022-09-01T01:27:37;14.90;;;7.07;;
6031;SDS011;3044;43.232;27.972;2022-09-01T01:30:05;12.93;;;6.87;;
6031;SDS011;3044;43.232;27.972;2022-09-01T01:32:35;13.53;;;6.83;;
6031;SDS011;3044;43.232;27.972;2022-09-01T01:35:07;9.60;;;7.30;;
6031;SDS011;3044;43.232;27.972;2022-09-01T01:37:38;9.77;;;7.10;;
6031;SDS011;3044;43.232;27.972;2022-09-01T01:40:16;11.60;;;7.70;;
6031;SDS011;3044;43.232;27.972;2022-09-01T01:42:44;10.73;;;6.67;;
6031;SDS011;3044;43.232;27.972;2022-09-01T01:45:15;11.90;;;7.10;;
6031;SDS011;3044;43.232;27.972;2022-09-01T01:47:45;9.73;;;6.90;;
6031;SDS011;3044;43.232;27.972;2022-09-01T01:50:17;17.10;;;7.27;;
6031;SDS011;3044;43.232;27.972;2022-09-01T01:52:45;10.17;;;7.43;;
6031;SDS011;3044;43.232;27.972;2022-09-01T01:55:12;13.83;;;7.20;;
6031;SDS011;3044;43.232;27.972;2022-09-01T01:57:43;13.30;;;7.23;;
6031;SDS011;3044;43.232;27.972;2022-09-01T02:00:15;11.63;;;6.83;;
6031;SDS011;3044;43.232;27.972;2022-09-01T02:02:44;11.33;;;7.60;;
6031;SDS011;3044;43.232;27.972;2022-09-01T02:05:17;10.40;;;7.40;;
6031;SDS011;3044;43.232;27.972;2022-09-01T02:07:52;13.40;;;7.73;;
6031;SDS011;3044;43.232;27.972;2022-09-01T02:10:24;21.10;;;8.53;;
6031;SDS011;3044;43.232;27.972;2022-09-01T02:12:55;8.47;;;7.67;;
6031;SDS011;3044;43.232;27.972;2022-09-01T02:15:28;9.07;;;8.13;;
6031;SDS011;3044;43.232;27.972;2022-09-01T02:18:07;15.87;;;8.20;;
6031;SDS011;3044;43.232;27.972;2022-09-01T02:20:35;18.60;;;8.30;;
6031;SDS011;3044;43.232;27.972;2022-09-01T02:23:02;11.13;;;7.60;;
6031;SDS011;3044;43.232;27.972;2022-09-01T02:25:37;12.60;;;8.40;;
6031;SDS011;3044;43.232;27.972;2022-09-01T02:28:08;9.60;;;7.37;;
6031;SDS011;3044;43.232;27.972;2022-09-01T02:30:39;9.30;;;7.50;;
6031;SDS011;3044;43.232;27.972;2022-09-01T02:33:07;13.13;;;8.47;;
6031;SDS011;3044;43.232;27.972;2022-09-01T02:35:34;10.00;;;7.40;;
6031;SDS011;3044;43.232;27.972;2022-09-01T02:38:02;12.83;;;7.93;;
6031;SDS011;3044;43.232;27.972;2022-09-01T02:40:30;16.80;;;9.23;;
6031;SDS011;3044;43.232;27.972;2022-09-01T02:42:59;10.03;;;8.30;;
6031;SDS011;3044;43.232;27.972;2022-09-01T02:45:26;9.93;;;8.30;;
6031;SDS011;3044;43.232;27.972;2022-09-01T02:47:54;12.33;;;7.53;;
6031;SDS011;3044;43.232;27.972;2022-09-01T02:50:22;8.90;;;8.10;;
6031;SDS011;3044;43.232;27.972;2022-09-01T02:52:51;11.90;;;7.83;;
6031;SDS011;3044;43.232;27.972;2022-09-01T02:55:19;9.87;;;8.43;;
6031;SDS011;3044;43.232;27.972;2022-09-01T02:57:47;12.57;;;8.57;;
6031;SDS011;3044;43.232;27.972;2022-09-01T03:00:21;12.03;;;8.13;;
6031;SDS011;3044;43.232;27.972;2022-09-01T03:02:54;11.37;;;8.30;;
6031;SDS011;3044;43.232;27.972;2022-09-01T03:05:22;11.33;;;7.57;;
6031;SDS011;3044;43.232;27.972;2022-09-01T03:07:52;18.13;;;9.40;;
6031;SDS011;3044;43.232;27.972;2022-09-01T03:10:21;12.57;;;7.97;;
6031;SDS011;3044;43.232;27.972;2022-09-01T03:12:57;18.10;;;8.10;;
6031;SDS011;3044;43.232;27.972;2022-09-01T03:15:28;13.63;;;8.73;;
6031;SDS011;3044;43.232;27.972;2022-09-01T03:17:55;16.57;;;8.17;;
6031;SDS011;3044;43.232;27.972;2022-09-01T03:20:25;14.17;;;8.50;;
6031;SDS011;3044;43.232;27.972;2022-09-01T03:22:54;11.43;;;7.70;;
6031;SDS011;3044;43.232;27.972;2022-09-01T03:25:23;13.00;;;8.03;;
6031;SDS011;3044;43.232;27.972;2022-09-01T03:27:51;7.90;;;7.00;;
6031;SDS011;3044;43.232;27.972;2022-09-01T03:30:19;9.27;;;7.37;;
6031;SDS011;3044;43.232;27.972;2022-09-01T03:32:48;14.00;;;7.13;;
6031;SDS011;3044;43.232;27.972;2022-09-01T03:35:16;10.50;;;7.73;;
6031;SDS011;3044;43.232;27.972;2022-09-01T03:37:43;11.30;;;7.63;;
6031;SDS011;3044;43.232;27.972;2022-09-01T03:40:11;8.80;;;7.53;;
6031;SDS011;3044;43.232;27.972;2022-09-01T03:42:40;17.67;;;8.43;;
6031;SDS011;3044;43.232;27.972;2022-09-01T03:45:08;12.80;;;7.37;;
6031;SDS011;3044;43.232;27.972;2022-09-01T03:47:40;23.27;;;7.17;;
6031;SDS011;3044;43.232;27.972;2022-09-01T03:50:11;13.60;;;8.00;;
6031;SDS011;3044;43.232;27.972;2022-09-01T03:52:44;16.13;;;7.30;;
6031;SDS011;3044;43.232;27.972;2022-09-01T03:55:13;15.73;;;7.27;;
6031;SDS011;3044;43.232;27.972;2022-09-01T03:57:43;7.43;;;6.83;;
6031;SDS011;3044;43.232;27.972;2022-09-01T04:00:12;8.07;;;7.00;;
6031;SDS011;3044;43.232;27.972;2022-09-01T04:02:48;10.03;;;8.17;;
6031;SDS011;3044;43.232;27.972;2022-09-01T04:05:19;9.60;;;7.10;;
6031;SDS011;3044;43.232;27.972;2022-09-01T04:07:49;8.60;;;7.43;;
6031;SDS011;3044;43.232;27.972;2022-09-01T04:10:17;11.50;;;7.63;;
6031;SDS011;3044;43.232;27.972;2022-09-01T04:12:44;13.50;;;6.70;;
6031;SDS011;3044;43.232;27.972;2022-09-01T04:15:12;24.43;;;7.37;;
6031;SDS011;3044;43.232;27.972;2022-09-01T04:17:41;14.70;;;6.80;;
6031;SDS011;3044;43.232;27.972;2022-09-01T04:20:27;9.43;;;6.20;;
6031;SDS011;3044;43.232;27.972;2022-09-01T04:23:04;16.77;;;7.00;;
6031;SDS011;3044;43.232;27.972;2022-09-01T04:25:35;10.80;;;6.77;;
6031;SDS011;3044;43.232;27.972;2022-09-01T04:28:03;9.47;;;6.67;;
6031;SDS011;3044;43.232;27.972;2022-09-01T04:30:38;8.63;;;6.87;;
6031;SDS011;3044;43.232;27.972;2022-09-01T04:33:06;7.93;;;6.37;;
6031;SDS011;3044;43.232;27.972;2022-09-01T04:35:37;14.57;;;7.10;;
6031;SDS011;3044;43.232;27.972;2022-09-01T04:38:05;7.73;;;7.00;;
6031;SDS011;3044;43.232;27.972;2022-09-01T04:40:35;9.50;;;6.33;;
6031;SDS011;3044;43.232;27.972;2022-09-01T04:43:03;10.57;;;6.40;;
6031;SDS011;3044;43.232;27.972;2022-09-01T04:45:30;7.70;;;6.90;;
6031;SDS011;3044;43.232;27.972;2022-09-01T04:48:00;9.20;;;6.80;;
6031;SDS011;3044;43.232;27.972;2022-09-01T04:50:28;13.73;;;6.60;;
6031;SDS011;3044;43.232;27.972;2022-09-01T04:52:58;8.37;;;6.20;;
6031;SDS011;3044;43.232;27.972;2022-09-01T04:55:26;9.20;;;5.93;;
6031;SDS011;3044;43.232;27.972;2022-09-01T04:57:55;12.23;;;6.27;;
6031;SDS011;3044;43.232;27.972;2022-09-01T05:00:24;11.53;;;5.73;;
6031;SDS011;3044;43.232;27.972;2022-09-01T05:02:56;8.03;;;5.17;;
6031;SDS011;3044;43.232;27.972;2022-09-01T05:05:34;7.00;;;5.33;;
6031;SDS011;3044;43.232;27.972;2022-09-01T05:08:08;6.93;;;5.50;;
6031;SDS011;3044;43.232;27.972;2022-09-01T05:10:39;10.10;;;5.40;;
6031;SDS011;3044;43.232;27.972;2022-09-01T05:13:08;11.73;;;6.33;;
6031;SDS011;3044;43.232;27.972;2022-09-01T05:15:38;8.93;;;5.63;;
6031;SDS011;3044;43.232;27.972;2022-09-01T05:18:11;13.80;;;5.40;;
6031;SDS011;3044;43.232;27.972;2022-09-01T05:20:40;7.93;;;5.27;;
6031;SDS011;3044;43.232;27.972;2022-09-01T05:23:11;21.00;;;6.17;;
6031;SDS011;3044;43.232;27.972;2022-09-01T05:25:40;13.60;;;5.50;;
6031;SDS011;3044;43.232;27.972;2022-09-01T05:28:08;16.53;;;8.20;;
6031;SDS011;3044;43.232;27.972;2022-09-01T05:30:37;20.03;;;7.60;;
6031;SDS011;3044;43.232;27.972;2022-09-01T05:33:05;17.00;;;10.30;;
6031;SDS011;3044;43.232;27.972;2022-09-01T05:35:36;15.73;;;6.70;;
6031;SDS011;3044;43.232;27.972;2022-09-01T05:38:11;20.03;;;7.47;;
6031;SDS011;3044;43.232;27.972;2022-09-01T05:40:40;12.40;;;7.30;;
6031;SDS011;3044;43.232;27.972;2022-09-01T05:43:09;20.10;;;7.37;;
6031;SDS011;3044;43.232;27.972;2022-09-01T05:45:39;20.33;;;5.10;;
6031;SDS011;3044;43.232;27.972;2022-09-01T05:48:10;11.93;;;6.87;;
6031;SDS011;3044;43.232;27.972;2022-09-01T05:50:42;17.23;;;8.43;;
6031;SDS011;3044;43.232;27.972;2022-09-01T05:53:11;11.60;;;6.87;;
6031;SDS011;3044;43.232;27.972;2022-09-01T05:55:42;17.83;;;8.17;;
6031;SDS011;3044;43.232;27.972;2022-09-01T05:58:10;13.63;;;9.17;;
6031;SDS011;3044;43.232;27.972;2022-09-01T06:00:39;10.63;;;5.87;;
6031;SDS011;3044;43.232;27.972;2022-09-01T06:03:07;12.53;;;6.10;;
6031;SDS011;3044;43.232;27.972;2022-09-01T06:05:35;6.87;;;4.90;;
6031;SDS011;3044;43.232;27.972;2022-09-01T06:08:04;5.60;;;5.07;;
6031;SDS011;3044;43.232;27.972;2022-09-01T06:10:36;8.67;;;4.70;;
6031;SDS011;3044;43.232;27.972;2022-09-01T06:13:06;10.57;;;7.13;;
6031;SDS011;3044;43.232;27.972;2022-09-01T06:15:34;9.30;;;5.80;;
6031;SDS011;3044;43.232;27.972;2022-09-01T06:18:04;9.37;;;5.57;;
6031;SDS011;3044;43.232;27.972;2022-09-01T06:20:33;8.40;;;5.53;;
6031;SDS011;3044;43.232;27.972;2022-09-01T06:23:04;11.60;;;5.60;;
6031;SDS011;3044;43.232;27.972;2022-09-01T06:25:36;8.23;;;4.90;;
6031;SDS011;3044;43.232;27.972;2022-09-01T06:28:04;8.17;;;5.10;;
6031;SDS011;3044;43.232;27.972;2022-09-01T06:30:33;10.53;;;4.60;;
6031;SDS011;3044;43.232;27.972;2022-09-01T06:33:01;11.20;;;5.13;;
6031;SDS011;3044;43.232;27.972;2022-09-01T06:35:39;6.40;;;4.50;;
6031;SDS011;3044;43.232;27.972;2022-09-01T06:38:09;11.77;;;4.53;;
6031;SDS011;3044;43.232;27.972;2022-09-01T06:40:39;7.33;;;4.87;;
6031;SDS011;3044;43.232;27.972;2022-09-01T06:43:07;7.77;;;5.27;;
6031;SDS011;3044;43.232;27.972;2022-09-01T06:45:38;7.83;;;4.50;;
6031;SDS011;3044;43.232;27.972;2022-09-01T06:48:07;10.43;;;4.93;;
6031;SDS011;3044;43.232;27.972;2022-09-01T06:50:40;7.43;;;4.77;;
6031;SDS011;3044;43.232;27.972;2022-09-01T06:53:08;8.60;;;5.20;;
6031;SDS011;3044;43.232;27.972;2022-09-01T06:55:39;9.43;;;4.80;;
6031;SDS011;3044;43.232;27.972;2022-09-01T06:58:08;9.33;;;5.20;;
6031;SDS011;3044;43.232;27.972;2022-09-01T07:00:39;7.90;;;4.83;;
6031;SDS011;3044;43.232;27.972;2022-09-01T07:03:09;7.70;;;5.30;;
6031;SDS011;3044;43.232;27.972;2022-09-01T07:05:38;7.40;;;5.27;;
6031;SDS011;3044;43.232;27.972;2022-09-01T07:08:06;11.80;;;5.30;;
6031;SDS011;3044;43.232;27.972;2022-09-01T07:10:40;9.77;;;5.40;;
6031;SDS011;3044;43.232;27.972;2022-09-01T07:13:10;8.10;;;5.47;;
6031;SDS011;3044;43.232;27.972;2022-09-01T07:15:44;7.80;;;5.67;;
6031;SDS011;3044;43.232;27.972;2022-09-01T07:18:14;7.30;;;5.40;;
6031;SDS011;3044;43.232;27.972;2022-09-01T07:20:43;8.70;;;5.67;;
6031;SDS011;3044;43.232;27.972;2022-09-01T07:23:13;8.23;;;4.80;;
6031;SDS011;3044;43.232;27.972;2022-09-01T07:25:44;7.23;;;4.70;;
6031;SDS011;3044;43.232;27.972;2022-09-01T07:28:14;7.23;;;4.53;;
6031;SDS011;3044;43.232;27.972;2022-09-01T07:30:43;7.53;;;5.00;;
6031;SDS011;3044;43.232;27.972;2022-09-01T07:33:13;8.00;;;5.13;;
6031;SDS011;3044;43.232;27.972;2022-09-01T07:35:45;8.70;;;5.33;;
6031;SDS011;3044;43.232;27.972;2022-09-01T07:38:14;10.43;;;4.40;;
6031;SDS011;3044;43.232;27.972;2022-09-01T07:40:45;7.73;;;5.27;;
6031;SDS011;3044;43.232;27.972;2022-09-01T07:43:18;9.40;;;5.53;;
6031;SDS011;3044;43.232;27.972;2022-09-01T07:45:49;7.10;;;4.93;;
6031;SDS011;3044;43.232;27.972;2022-09-01T07:48:20;7.97;;;5.07;;
6031;SDS011;3044;43.232;27.972;2022-09-01T07:50:50;10.03;;;4.83;;
6031;SDS011;3044;43.232;27.972;2022-09-01T07:53:20;7.63;;;4.93;;
6031;SDS011;3044;43.232;27.972;2022-09-01T07:55:50;16.53;;;5.20;;
6031;SDS011;3044;43.232;27.972;2022-09-01T07:58:20;7.40;;;5.63;;
6031;SDS011;3044;43.232;27.972;2022-09-01T08:00:49;13.33;;;5.47;;
6031;SDS011;3044;43.232;27.972;2022-09-01T08:03:18;6.80;;;4.83;;
6031;SDS011;3044;43.232;27.972;2022-09-01T08:05:47;10.70;;;5.23;;
6031;SDS011;3044;43.232;27.972;2022-09-01T08:08:18;11.20;;;4.90;;
6031;SDS011;3044;43.232;27.972;2022-09-01T08:10:45;5.50;;;4.40;;
6031;SDS011;3044;43.232;27.972;2022-09-01T08:13:15;8.43;;;4.73;;
6031;SDS011;3044;43.232;27.972;2022-09-01T08:15:43;6.73;;;5.00;;
6031;SDS011;3044;43.232;27.972;2022-09-01T08:18:11;6.70;;;4.90;;
6031;SDS011;3044;43.232;27.972;2022-09-01T08:20:39;10.80;;;4.60;;
6031;SDS011;3044;43.232;27.972;2022-09-01T08:23:10;10.20;;;5.40;;
6031;SDS011;3044;43.232;27.972;2022-09-01T08:25:38;15.00;;;5.37;;
6031;SDS011;3044;43.232;27.972;2022-09-01T08:28:06;9.23;;;5.03;;
6031;SDS011;3044;43.232;27.972;2022-09-01T08:30:36;9.03;;;5.17;;
6031;SDS011;3044;43.232;27.972;2022-09-01T08:33:04;8.27;;;5.37;;
6031;SDS011;3044;43.232;27.972;2022-09-01T08:35:32;8.03;;;4.97;;
6031;SDS011;3044;43.232;27.972;2022-09-01T08:37:59;8.43;;;5.17;;
6031;SDS011;3044;43.232;27.972;2022-09-01T08:40:26;5.87;;;5.03;;
6031;SDS011;3044;43.232;27.972;2022-09-01T08:42:56;8.93;;;4.60;;
6031;SDS011;3044;43.232;27.972;2022-09-01T08:45:32;9.50;;;5.93;;
6031;SDS011;3044;43.232;27.972;2022-09-01T08:48:09;17.83;;;6.10;;
6031;SDS011;3044;43.232;27.972;2022-09-01T08:50:41;9.33;;;5.80;;
6031;SDS011;3044;43.232;27.972;2022-09-01T08:53:12;14.80;;;5.20;;
6031;SDS011;3044;43.232;27.972;2022-09-01T08:55:49;9.77;;;5.67;;
6031;SDS011;3044;43.232;27.972;2022-09-01T08:58:20;9.80;;;5.10;;
6031;SDS011;3044;43.232;27.972;2022-09-01T09:00:52;10.27;;;5.60;;
6031;SDS011;3044;43.232;27.972;2022-09-01T09:03:26;7.33;;;5.23;;
6031;SDS011;3044;43.232;27.972;2022-09-01T09:06:04;8.77;;;5.17;;
6031;SDS011;3044;43.232;27.972;2022-09-01T09:08:54;14.03;;;5.60;;
6031;SDS011;3044;43.232;27.972;2022-09-01T09:14:31;9.03;;;5.80;;
6031;SDS011;3044;43.232;27.972;2022-09-01T09:17:09;14.07;;;6.10;;
6031;SDS011;3044;43.232;27.972;2022-09-01T09:19:39;10.23;;;5.20;;
6031;SDS011;3044;43.232;27.972;2022-09-01T09:22:08;16.23;;;5.30;;
6031;SDS011;3044;43.232;27.972;2022-09-01T09:24:38;10.80;;;5.27;;
6031;SDS011;3044;43.232;27.972;2022-09-01T09:27:16;11.57;;;5.77;;
6031;SDS011;3044;43.232;27.972;2022-09-01T09:29:45;10.53;;;5.47;;
6031;SDS011;3044;43.232;27.972;2022-09-01T09:32:17;7.50;;;6.03;;
6031;SDS011;3044;43.232;27.972;2022-09-01T09:34:45;12.43;;;6.30;;
6031;SDS011;3044;43.232;27.972;2022-09-01T09:37:16;13.00;;;5.70;;
6031;SDS011;3044;43.232;27.972;2022-09-01T09:40:04;15.27;;;6.43;;
6031;SDS011;3044;43.232;27.972;2022-09-01T09:42:37;10.40;;;5.63;;
6031;SDS011;3044;43.232;27.972;2022-09-01T09:45:12;10.10;;;6.27;;
6031;SDS011;3044;43.232;27.972;2022-09-01T09:47:50;15.77;;;6.00;;
6031;SDS011;3044;43.232;27.972;2022-09-01T09:50:21;9.90;;;5.20;;
6031;SDS011;3044;43.232;27.972;2022-09-01T09:52:51;10.23;;;5.80;;
6031;SDS011;3044;43.232;27.972;2022-09-01T09:55:26;9.70;;;5.47;;
6031;SDS011;3044;43.232;27.972;2022-09-01T09:57:56;17.17;;;6.80;;
6031;SDS011;3044;43.232;27.972;2022-09-01T10:00:26;7.60;;;5.90;;
6031;SDS011;3044;43.232;27.972;2022-09-01T10:02:57;9.37;;;5.57;;
6031;SDS011;3044;43.232;27.972;2022-09-01T10:05:35;11.70;;;6.03;;
6031;SDS011;3044;43.232;27.972;2022-09-01T10:08:05;8.20;;;5.30;;
6031;SDS011;3044;43.232;27.972;2022-09-01T10:10:37;9.40;;;5.50;;
6031;SDS011;3044;43.232;27.972;2022-09-01T10:13:09;14.60;;;5.77;;
6031;SDS011;3044;43.232;27.972;2022-09-01T10:15:38;9.03;;;6.07;;
6031;SDS011;3044;43.232;27.972;2022-09-01T10:18:11;6.87;;;5.10;;
6031;SDS011;3044;43.232;27.972;2022-09-01T10:20:44;12.50;;;6.30;;
6031;SDS011;3044;43.232;27.972;2022-09-01T10:23:19;10.93;;;5.67;;
6031;SDS011;3044;43.232;27.972;2022-09-01T10:25:47;10.40;;;5.60;;
6031;SDS011;3044;43.232;27.972;2022-09-01T10:28:18;14.27;;;5.17;;
6031;SDS011;3044;43.232;27.972;2022-09-01T10:30:48;12.77;;;5.17;;
6031;SDS011;3044;43.232;27.972;2022-09-01T10:33:20;12.73;;;5.83;;
6031;SDS011;3044;43.232;27.972;2022-09-01T10:35:48;10.80;;;5.60;;
6031;SDS011;3044;43.232;27.972;2022-09-01T10:38:18;12.53;;;5.60;;
6031;SDS011;3044;43.232;27.972;2022-09-01T10:40:48;7.27;;;5.33;;
6031;SDS011;3044;43.232;27.972;2022-09-01T10:43:38;12.80;;;5.67;;
6031;SDS011;3044;43.232;27.972;2022-09-01T10:46:07;8.93;;;6.30;;
6031;SDS011;3044;43.232;27.972;2022-09-01T10:48:45;60.10;;;14.53;;
6031;SDS011;3044;43.232;27.972;2022-09-01T10:54:06;21.70;;;8.10;;
6031;SDS011;3044;43.232;27.972;2022-09-01T10:56:38;11.70;;;6.20;;
6031;SDS011;3044;43.232;27.972;2022-09-01T10:59:09;9.57;;;5.47;;
6031;SDS011;3044;43.232;27.972;2022-09-01T11:07:39;10.30;;;6.07;;
6031;SDS011;3044;43.232;27.972;2022-09-01T11:10:21;10.27;;;6.20;;
6031;SDS011;3044;43.232;27.972;2022-09-01T11:13:08;12.27;;;6.00;;
6031;SDS011;3044;43.232;27.972;2022-09-01T11:18:54;8.83;;;6.00;;
6031;SDS011;3044;43.232;27.972;2022-09-01T11:21:25;10.10;;;5.27;;
6031;SDS011;3044;43.232;27.972;2022-09-01T11:30:17;12.67;;;6.50;;
6031;SDS011;3044;43.232;27.972;2022-09-01T11:32:48;17.13;;;7.03;;
6031;SDS011;3044;43.232;27.972;2022-09-01T11:35:19;16.30;;;6.87;;
6031;SDS011;3044;43.232;27.972;2022-09-01T11:37:51;8.53;;;6.33;;
6031;SDS011;3044;43.232;27.972;2022-09-01T11:40:22;13.57;;;7.60;;
6031;SDS011;3044;43.232;27.972;2022-09-01T11:42:51;11.97;;;6.43;;
6031;SDS011;3044;43.232;27.972;2022-09-01T11:45:23;12.17;;;6.50;;
6031;SDS011;3044;43.232;27.972;2022-09-01T11:47:54;14.63;;;7.63;;
6031;SDS011;3044;43.232;27.972;2022-09-01T11:50:26;15.73;;;7.13;;
6031;SDS011;3044;43.232;27.972;2022-09-01T11:52:57;14.50;;;7.07;;
6031;SDS011;3044;43.232;27.972;2022-09-01T11:55:29;15.03;;;7.30;;
6031;SDS011;3044;43.232;27.972;2022-09-01T11:57:58;16.80;;;6.63;;
6031;SDS011;3044;43.232;27.972;2022-09-01T12:00:27;14.07;;;7.60;;
6031;SDS011;3044;43.232;27.972;2022-09-01T12:02:57;10.27;;;6.40;;
6031;SDS011;3044;43.232;27.972;2022-09-01T12:05:26;13.63;;;7.60;;
6031;SDS011;3044;43.232;27.972;2022-09-01T12:07:57;13.80;;;7.13;;
6031;SDS011;3044;43.232;27.972;2022-09-01T12:10:29;14.80;;;7.63;;
6031;SDS011;3044;43.232;27.972;2022-09-01T12:13:00;19.53;;;7.40;;
6031;SDS011;3044;43.232;27.972;2022-09-01T12:15:29;10.33;;;7.17;;
6031;SDS011;3044;43.232;27.972;2022-09-01T12:18:08;15.00;;;7.50;;
6031;SDS011;3044;43.232;27.972;2022-09-01T12:20:39;8.73;;;6.70;;
6031;SDS011;3044;43.232;27.972;2022-09-01T12:23:16;17.97;;;7.10;;
6031;SDS011;3044;43.232;27.972;2022-09-01T12:25:49;25.40;;;7.60;;
6031;SDS011;3044;43.232;27.972;2022-09-01T12:28:16;14.00;;;6.50;;
6031;SDS011;3044;43.232;27.972;2022-09-01T12:30:44;12.13;;;7.20;;
6031;SDS011;3044;43.232;27.972;2022-09-01T12:33:11;17.33;;;7.00;;
6031;SDS011;3044;43.232;27.972;2022-09-01T12:35:39;12.83;;;6.80;;
6031;SDS011;3044;43.232;27.972;2022-09-01T12:38:27;12.93;;;6.97;;
6031;SDS011;3044;43.232;27.972;2022-09-01T12:40:55;20.50;;;7.40;;
6031;SDS011;3044;43.232;27.972;2022-09-01T12:43:28;13.93;;;6.43;;
6031;SDS011;3044;43.232;27.972;2022-09-01T12:45:56;16.67;;;7.00;;
6031;SDS011;3044;43.232;27.972;2022-09-01T12:48:26;15.83;;;7.20;;
6031;SDS011;3044;43.232;27.972;2022-09-01T12:50:55;14.73;;;6.90;;
6031;SDS011;3044;43.232;27.972;2022-09-01T12:53:29;15.03;;;6.97;;
6031;SDS011;3044;43.232;27.972;2022-09-01T12:56:01;15.30;;;6.20;;
6031;SDS011;3044;43.232;27.972;2022-09-01T12:58:42;14.10;;;7.43;;
6031;SDS011;3044;43.232;27.972;2022-09-01T13:01:23;11.57;;;6.87;;
6031;SDS011;3044;43.232;27.972;2022-09-01T13:04:06;16.60;;;7.10;;
6031;SDS011;3044;43.232;27.972;2022-09-01T13:06:38;12.80;;;6.90;;
6031;SDS011;3044;43.232;27.972;2022-09-01T13:09:07;11.90;;;6.53;;
6031;SDS011;3044;43.232;27.972;2022-09-01T13:11:34;9.63;;;5.90;;
6031;SDS011;3044;43.232;27.972;2022-09-01T13:14:01;9.73;;;6.00;;
6031;SDS011;3044;43.232;27.972;2022-09-01T13:16:29;22.13;;;7.33;;
6031;SDS011;3044;43.232;27.972;2022-09-01T13:18:56;14.73;;;6.87;;
6031;SDS011;3044;43.232;27.972;2022-09-01T13:21:23;14.27;;;6.93;;
6031;SDS011;3044;43.232;27.972;2022-09-01T13:23:51;15.63;;;7.30;;
6031;SDS011;3044;43.232;27.972;2022-09-01T13:26:20;13.63;;;6.83;;
6031;SDS011;3044;43.232;27.972;2022-09-01T13:28:48;9.50;;;6.30;;
6031;SDS011;3044;43.232;27.972;2022-09-01T13:31:15;8.33;;;6.63;;
6031;SDS011;3044;43.232;27.972;2022-09-01T13:33:42;12.93;;;6.37;;
6031;SDS011;3044;43.232;27.972;2022-09-01T13:36:10;11.37;;;6.43;;
6031;SDS011;3044;43.232;27.972;2022-09-01T13:38:37;14.80;;;7.80;;
6031;SDS011;3044;43.232;27.972;2022-09-01T13:41:05;11.93;;;6.10;;
6031;SDS011;3044;43.232;27.972;2022-09-01T13:43:36;10.93;;;7.10;;
6031;SDS011;3044;43.232;27.972;2022-09-01T13:46:03;15.83;;;7.30;;
6031;SDS011;3044;43.232;27.972;2022-09-01T13:48:33;16.13;;;7.00;;
6031;SDS011;3044;43.232;27.972;2022-09-01T13:51:01;12.90;;;7.50;;
6031;SDS011;3044;43.232;27.972;2022-09-01T13:53:28;13.80;;;7.07;;
6031;SDS011;3044;43.232;27.972;2022-09-01T13:55:55;13.80;;;7.20;;
6031;SDS011;3044;43.232;27.972;2022-09-01T13:58:23;16.10;;;7.73;;
6031;SDS011;3044;43.232;27.972;2022-09-01T14:00:51;20.57;;;8.00;;
6031;SDS011;3044;43.232;27.972;2022-09-01T14:03:21;9.10;;;6.33;;
6031;SDS011;3044;43.232;27.972;2022-09-01T14:05:49;11.63;;;6.50;;
6031;SDS011;3044;43.232;27.972;2022-09-01T14:08:17;12.97;;;7.37;;
6031;SDS011;3044;43.232;27.972;2022-09-01T14:10:47;10.10;;;7.10;;
6031;SDS011;3044;43.232;27.972;2022-09-01T14:13:16;15.70;;;8.30;;
6031;SDS011;3044;43.232;27.972;2022-09-01T14:15:44;10.97;;;7.07;;
6031;SDS011;3044;43.232;27.972;2022-09-01T14:18:14;11.00;;;6.77;;
6031;SDS011;3044;43.232;27.972;2022-09-01T14:20:42;13.00;;;6.60;;
6031;SDS011;3044;43.232;27.972;2022-09-01T14:23:11;8.97;;;7.27;;
6031;SDS011;3044;43.232;27.972;2022-09-01T14:25:41;12.03;;;6.87;;
6031;SDS011;3044;43.232;27.972;2022-09-01T14:28:10;13.27;;;6.47;;
6031;SDS011;3044;43.232;27.972;2022-09-01T14:30:38;11.40;;;6.60;;
6031;SDS011;3044;43.232;27.972;2022-09-01T14:33:06;12.83;;;6.30;;
6031;SDS011;3044;43.232;27.972;2022-09-01T14:35:36;12.17;;;6.73;;
6031;SDS011;3044;43.232;27.972;2022-09-01T14:38:04;16.13;;;9.57;;
6031;SDS011;3044;43.232;27.972;2022-09-01T14:40:33;13.90;;;7.87;;
6031;SDS011;3044;43.232;27.972;2022-09-01T14:43:03;15.00;;;9.70;;
6031;SDS011;3044;43.232;27.972;2022-09-01T14:45:31;21.90;;;7.00;;
6031;SDS011;3044;43.232;27.972;2022-09-01T14:47:59;17.23;;;7.40;;
6031;SDS011;3044;43.232;27.972;2022-09-01T14:50:27;13.93;;;7.17;;
6031;SDS011;3044;43.232;27.972;2022-09-01T14:52:58;10.30;;;6.90;;
6031;SDS011;3044;43.232;27.972;2022-09-01T14:55:27;10.23;;;5.60;;
6031;SDS011;3044;43.232;27.972;2022-09-01T14:57:55;10.60;;;6.27;;
6031;SDS011;3044;43.232;27.972;2022-09-01T15:00:22;14.10;;;6.47;;
6031;SDS011;3044;43.232;27.972;2022-09-01T15:02:50;16.23;;;7.13;;
6031;SDS011;3044;43.232;27.972;2022-09-01T15:05:19;7.93;;;6.60;;
6031;SDS011;3044;43.232;27.972;2022-09-01T15:07:46;13.20;;;7.27;;
6031;SDS011;3044;43.232;27.972;2022-09-01T15:10:17;12.93;;;6.70;;
6031;SDS011;3044;43.232;27.972;2022-09-01T15:12:45;14.40;;;7.40;;
6031;SDS011;3044;43.232;27.972;2022-09-01T15:15:14;10.73;;;6.37;;
6031;SDS011;3044;43.232;27.972;2022-09-01T15:17:42;11.33;;;7.37;;
6031;SDS011;3044;43.232;27.972;2022-09-01T15:20:09;14.90;;;7.90;;
6031;SDS011;3044;43.232;27.972;2022-09-01T15:22:54;14.80;;;6.80;;
6031;SDS011;3044;43.232;27.972;2022-09-01T15:25:23;14.03;;;7.97;;
6031;SDS011;3044;43.232;27.972;2022-09-01T15:27:50;12.17;;;6.50;;
6031;SDS011;3044;43.232;27.972;2022-09-01T15:30:18;9.37;;;6.33;;
6031;SDS011;3044;43.232;27.972;2022-09-01T15:32:46;7.73;;;6.27;;
6031;SDS011;3044;43.232;27.972;2022-09-01T15:35:16;15.33;;;7.20;;